Time;durP1;ratioP1;P1;durP2;ratioP2;P2;SDS_P1;SDS_P2;PMS_P1;PMS_P2;Temp;Humidity;BMP_temperature;BMP_pressure;BME280_temperature;BME280_humidity;BME280_pressure;Samples;Min_cycle;Max_cycle;Signal;HPM_P1;HPM_P2
2022/10/01 00:02:26;;;;;;;6.50;1.15;;;19.40;99.90;;;;;;5031327;28;20272;-79
2022/10/01 00:04:57;;;;;;;7.78;1.20;;;19.40;99.90;;;;;;5032730;28;20240;-79
2022/10/01 00:07:27;;;;;;;5.88;1.27;;;19.40;99.90;;;;;;5046285;28;20196;-78
2022/10/01 00:09:58;;;;;;;3.47;1.10;;;19.40;99.90;;;;;;5051166;28;20228;-79
2022/10/01 00:12:29;;;;;;;3.88;1.00;;;19.30;99.90;;;;;;5047098;28;20251;-79
2022/10/01 00:15:02;;;;;;;3.30;1.08;;;19.40;99.90;;;;;;5040280;28;20232;-78
2022/10/01 00:17:32;;;;;;;4.18;1.00;;;19.30;99.90;;;;;;5050756;28;20283;-78
2022/10/01 00:20:03;;;;;;;4.80;1.30;;;19.20;99.90;;;;;;5042786;28;20196;-78
2022/10/01 00:22:35;;;;;;;4.10;1.33;;;19.20;99.90;;;;;;5063924;28;20200;-79
2022/10/01 00:25:06;;;;;;;4.90;1.10;;;19.30;99.90;;;;;;5035925;28;20227;-78
2022/10/01 00:27:37;;;;;;;4.05;1.00;;;19.40;99.90;;;;;;5046253;28;20231;-78
2022/10/01 00:30:10;;;;;;;2.97;1.17;;;19.50;99.90;;;;;;5046670;28;20204;-80
2022/10/01 00:32:41;;;;;;;4.10;1.20;;;19.70;99.90;;;;;;5031595;28;20205;-81
2022/10/01 00:35:13;;;;;;;3.35;1.00;;;19.70;99.90;;;;;;5049267;28;20310;-81
2022/10/01 00:37:44;;;;;;;3.53;0.90;;;19.60;99.90;;;;;;5049707;28;20303;-80
2022/10/01 00:40:15;;;;;;;5.05;1.15;;;19.70;99.90;;;;;;5031499;28;20198;-80
2022/10/01 00:42:46;;;;;;;4.40;1.40;;;19.80;99.90;;;;;;5036742;28;20203;-80
2022/10/01 00:45:19;;;;;;;5.80;1.30;;;19.80;99.90;;;;;;5040338;28;20209;-79
2022/10/01 00:47:54;;;;;;;5.50;1.50;;;19.80;99.90;;;;;;5048320;28;20196;-80
2022/10/01 00:50:30;;;;;;;5.40;1.33;;;19.50;99.90;;;;;;5045195;28;20680;-81
2022/10/01 00:53:04;;;;;;;3.13;1.02;;;19.30;99.90;;;;;;5048324;28;20196;-80
2022/10/01 00:55:37;;;;;;;7.07;1.02;;;19.10;99.90;;;;;;5050845;28;20582;-80
2022/10/01 00:58:09;;;;;;;2.60;0.90;;;19.00;99.90;;;;;;5044262;28;20212;-80
2022/10/01 01:00:43;;;;;;;3.10;0.88;;;18.90;99.90;;;;;;5041923;28;20208;-80
2022/10/01 01:03:14;;;;;;;2.85;0.98;;;18.90;99.90;;;;;;5030766;28;20208;-81
2022/10/01 01:05:46;;;;;;;3.25;1.13;;;19.00;99.90;;;;;;5037366;28;20578;-80
2022/10/01 01:08:19;;;;;;;3.17;0.90;;;19.00;99.90;;;;;;5033881;28;20587;-80
2022/10/01 01:11:00;;;;;;;3.20;0.68;;;19.20;99.90;;;;;;5041335;28;20231;-80
2022/10/01 01:13:38;;;;;;;2.50;0.50;;;19.30;99.90;;;;;;5038394;28;20215;-79
2022/10/01 01:16:18;;;;;;;4.78;0.98;;;19.50;99.90;;;;;;5034179;28;20231;-79
2022/10/01 01:18:58;;;;;;;3.85;1.13;;;19.60;99.90;;;;;;5049915;28;20204;-80
2022/10/01 01:21:34;;;;;;;3.55;1.08;;;19.60;99.90;;;;;;5033024;28;20622;-79
2022/10/01 01:24:29;;;;;;;2.35;0.88;;;19.70;99.90;;;;;;5035255;28;20299;-80
2022/10/01 01:27:25;;;;;;;4.57;1.25;;;19.60;99.90;;;;;;5030541;28;20215;-79
2022/10/01 01:30:03;;;;;;;4.97;1.13;;;19.70;99.90;;;;;;5048083;28;20239;-80
2022/10/01 01:32:45;;;;;;;4.25;1.15;;;19.80;99.90;;;;;;5022278;28;20224;-80
2022/10/01 01:35:22;;;;;;;3.28;1.08;;;19.70;99.90;;;;;;5025847;28;20327;-79
2022/10/01 01:37:58;;;;;;;4.25;1.13;;;19.60;99.90;;;;;;5026889;28;20208;-79
2022/10/01 01:40:33;;;;;;;4.13;0.90;;;19.50;99.90;;;;;;5022628;28;20226;-79
2022/10/01 01:43:08;;;;;;;4.70;1.00;;;19.50;99.90;;;;;;5021019;28;20196;-79
2022/10/01 01:45:43;;;;;;;3.10;1.00;;;19.40;99.90;;;;;;5020700;28;20215;-79
2022/10/01 01:48:16;;;;;;;16.10;1.58;;;19.30;99.90;;;;;;5021631;28;20211;-79
2022/10/01 01:50:54;;;;;;;2.67;1.00;;;19.20;99.90;;;;;;5020112;28;20270;-80
2022/10/01 01:53:25;;;;;;;4.50;1.50;;;19.40;99.90;;;;;;5025487;28;20196;-80
2022/10/01 01:55:56;;;;;;;4.35;1.10;;;19.50;99.90;;;;;;5020911;28;20240;-80
2022/10/01 01:58:27;;;;;;;4.53;1.00;;;19.60;99.90;;;;;;5028333;28;20686;-80
2022/10/01 02:01:00;;;;;;;2.92;0.88;;;19.70;99.90;;;;;;5021021;28;20574;-80
2022/10/01 02:03:33;;;;;;;3.05;0.82;;;19.90;99.90;;;;;;5020768;28;20671;-80
2022/10/01 02:06:13;;;;;;;2.85;0.75;;;20.00;99.90;;;;;;5025928;28;20672;-80
2022/10/01 02:08:51;;;;;;;4.15;1.10;;;20.20;99.90;;;;;;5021104;28;20212;-80
2022/10/01 02:11:29;;;;;;;3.20;0.98;;;20.40;99.90;;;;;;5020531;28;20198;-79
2022/10/01 02:14:05;;;;;;;4.00;1.00;;;20.60;99.90;;;;;;5021626;28;20216;-79
2022/10/01 02:16:49;;;;;;;4.30;1.15;;;20.70;99.90;;;;;;5021803;28;20229;-80
2022/10/01 02:19:25;;;;;;;3.22;0.93;;;20.70;99.90;;;;;;5021213;28;20197;-80
2022/10/01 02:22:01;;;;;;;3.17;1.00;;;20.80;99.90;;;;;;5021592;28;20577;-80
2022/10/01 02:24:40;;;;;;;2.95;1.00;;;21.00;99.90;;;;;;5020241;28;20219;-80
2022/10/01 02:27:15;;;;;;;3.60;1.00;;;21.10;99.90;;;;;;5021463;28;20211;-80
2022/10/01 02:29:47;;;;;;;4.43;1.00;;;21.30;99.90;;;;;;5020716;28;20224;-79
2022/10/01 02:32:22;;;;;;;3.22;0.80;;;21.20;99.90;;;;;;5032811;28;20208;-80
2022/10/01 02:34:54;;;;;;;3.75;0.85;;;20.90;99.90;;;;;;5031519;28;20225;-80
2022/10/01 02:37:28;;;;;;;3.50;0.80;;;20.70;99.90;;;;;;5051680;28;20220;-79
2022/10/01 02:40:00;;;;;;;4.15;1.00;;;20.50;99.90;;;;;;5033155;28;20201;-78
2022/10/01 02:42:33;;;;;;;2.80;0.80;;;20.40;99.90;;;;;;5036777;28;20298;-79
2022/10/01 02:45:07;;;;;;;4.20;0.98;;;20.40;99.90;;;;;;5053875;28;20208;-80
2022/10/01 02:47:45;;;;;;;3.55;1.05;;;20.60;99.90;;;;;;5044609;28;20202;-80
2022/10/01 02:50:16;;;;;;;3.75;0.93;;;20.70;99.90;;;;;;5045438;28;20198;-80
2022/10/01 02:52:54;;;;;;;5.13;1.10;;;20.80;99.90;;;;;;5047806;28;20258;-79
2022/10/01 02:55:29;;;;;;;4.32;1.17;;;20.80;99.90;;;;;;5037402;28;20241;-79
2022/10/01 02:57:58;;;;;;;3.63;1.00;;;21.10;99.90;;;;;;5039766;28;20196;-79
2022/10/01 03:00:29;;;;;;;2.55;0.60;;;21.20;99.90;;;;;;5048205;28;20204;-80
2022/10/01 03:03:02;;;;;;;2.10;0.70;;;21.30;99.90;;;;;;5041095;28;20193;-79
2022/10/01 03:05:33;;;;;;;2.65;0.70;;;21.20;99.90;;;;;;5046806;28;20205;-79
2022/10/01 03:08:04;;;;;;;2.85;0.95;;;21.30;99.90;;;;;;5050245;28;20204;-79
2022/10/01 03:10:35;;;;;;;4.65;0.95;;;21.60;99.90;;;;;;5044938;28;20196;-80
2022/10/01 03:13:06;;;;;;;4.03;0.98;;;21.40;99.90;;;;;;5052275;28;20232;-80
2022/10/01 03:15:37;;;;;;;3.72;1.20;;;21.10;99.90;;;;;;5040268;28;20271;-81
2022/10/01 03:18:09;;;;;;;5.55;1.20;;;20.90;99.90;;;;;;5040995;28;20230;-79
2022/10/01 03:20:42;;;;;;;5.82;1.20;;;20.60;99.90;;;;;;5045639;28;20197;-78
2022/10/01 03:23:12;;;;;;;5.97;1.20;;;20.40;99.90;;;;;;5042459;28;20507;-80
2022/10/01 03:25:43;;;;;;;5.78;1.10;;;20.10;99.90;;;;;;5042046;28;20197;-80
2022/10/01 03:28:14;;;;;;;7.35;1.10;;;20.00;99.90;;;;;;5037515;28;20675;-80
2022/10/01 03:30:44;;;;;;;2.92;0.80;;;20.10;99.90;;;;;;5047692;28;20209;-80
2022/10/01 03:33:17;;;;;;;7.85;1.27;;;20.60;99.90;;;;;;5045447;28;20188;-79
2022/10/01 03:35:48;;;;;;;2.83;1.10;;;20.50;99.90;;;;;;5039317;28;20242;-79
2022/10/01 03:38:18;;;;;;;6.47;1.27;;;20.50;99.90;;;;;;5038489;28;20250;-80
2022/10/01 03:40:49;;;;;;;4.25;1.27;;;20.70;99.90;;;;;;5038311;28;20676;-79
2022/10/01 03:43:20;;;;;;;3.55;0.93;;;20.70;99.90;;;;;;5058361;28;20209;-78
2022/10/01 03:45:51;;;;;;;3.25;1.00;;;20.60;99.90;;;;;;5043562;28;20262;-78
2022/10/01 03:48:24;;;;;;;4.30;1.00;;;20.50;99.90;;;;;;5044430;28;20283;-78
2022/10/01 03:50:56;;;;;;;2.13;0.85;;;20.40;99.90;;;;;;5041431;28;20704;-79
2022/10/01 03:53:28;;;;;;;4.32;1.00;;;20.30;99.90;;;;;;5038306;28;20196;-79
2022/10/01 03:56:00;;;;;;;3.88;0.90;;;20.10;99.90;;;;;;5045842;28;20267;-79
2022/10/01 03:58:31;;;;;;;5.65;1.20;;;19.90;99.90;;;;;;5043308;28;20318;-81
2022/10/01 04:01:02;;;;;;;4.18;1.02;;;19.80;99.90;;;;;;5037855;28;20199;-80
2022/10/01 04:03:35;;;;;;;4.97;1.30;;;19.70;99.90;;;;;;5052446;28;20220;-80
2022/10/01 04:06:06;;;;;;;6.63;1.73;;;19.70;99.90;;;;;;5048188;28;20208;-80
2022/10/01 04:08:37;;;;;;;3.88;1.15;;;19.70;99.90;;;;;;5047955;28;20240;-80
2022/10/01 04:11:07;;;;;;;3.92;1.25;;;19.80;99.90;;;;;;5051256;28;20196;-80
2022/10/01 04:13:38;;;;;;;4.15;1.20;;;20.00;99.90;;;;;;5035304;28;20200;-78
2022/10/01 04:16:11;;;;;;;6.28;1.10;;;20.00;99.90;;;;;;5040630;28;20224;-80
2022/10/01 04:18:44;;;;;;;7.03;1.20;;;20.00;99.90;;;;;;5035116;28;20201;-79
2022/10/01 04:21:15;;;;;;;2.75;0.95;;;19.90;99.90;;;;;;5049697;28;20192;-80
2022/10/01 04:23:45;;;;;;;5.57;1.02;;;19.90;99.90;;;;;;5031067;28;20194;-80
2022/10/01 04:26:17;;;;;;;3.55;1.10;;;19.80;99.90;;;;;;5040117;28;20204;-80
2022/10/01 04:28:48;;;;;;;5.40;1.00;;;19.70;99.90;;;;;;5044924;28;20220;-79
2022/10/01 04:31:33;;;;;;;3.67;0.90;;;19.50;99.90;;;;;;5051474;28;20218;-79
2022/10/01 04:34:06;;;;;;;3.70;0.90;;;19.70;99.90;;;;;;5047971;28;20201;-79
2022/10/01 04:36:40;;;;;;;3.33;0.82;;;20.00;99.90;;;;;;5053449;28;20294;-79
2022/10/01 04:39:13;;;;;;;3.13;0.90;;;20.30;99.90;;;;;;5038181;28;20213;-79
2022/10/01 04:41:45;;;;;;;4.57;0.80;;;20.50;99.90;;;;;;5037045;28;20284;-78
2022/10/01 04:44:19;;;;;;;3.10;0.90;;;20.70;99.90;;;;;;5057259;28;20594;-78
2022/10/01 04:46:49;;;;;;;2.35;0.80;;;21.00;99.90;;;;;;5049663;28;20205;-79
2022/10/01 04:49:22;;;;;;;3.13;1.10;;;21.20;99.90;;;;;;5059208;28;20201;-78
2022/10/01 04:51:56;;;;;;;3.50;1.10;;;21.10;99.90;;;;;;5057453;28;20181;-78
2022/10/01 04:54:27;;;;;;;2.05;0.73;;;21.10;99.90;;;;;;5042900;28;20229;-80
2022/10/01 04:56:57;;;;;;;4.18;1.00;;;21.10;99.90;;;;;;5042242;28;20235;-79
2022/10/01 04:59:28;;;;;;;2.08;0.63;;;21.00;99.90;;;;;;5047070;28;20228;-79
2022/10/01 05:02:02;;;;;;;3.38;0.85;;;20.80;99.90;;;;;;5047812;28;20192;-79
2022/10/01 05:04:39;;;;;;;2.83;0.70;;;20.90;99.90;;;;;;5038785;28;20191;-79
2022/10/01 05:07:10;;;;;;;5.13;0.98;;;21.00;99.90;;;;;;5048202;28;20228;-81
2022/10/01 05:09:44;;;;;;;3.83;0.88;;;21.20;99.90;;;;;;5047474;28;20678;-80
2022/10/01 05:12:18;;;;;;;2.47;0.70;;;21.00;99.90;;;;;;5055538;28;20201;-78
2022/10/01 05:14:49;;;;;;;3.53;0.73;;;21.00;99.90;;;;;;5054854;28;20196;-80
2022/10/01 05:17:21;;;;;;;2.92;0.93;;;21.30;99.90;;;;;;5042519;28;20315;-79
2022/10/01 05:20:02;;;;;;;2.70;0.93;;;21.70;99.90;;;;;;5044124;28;20203;-81
2022/10/01 05:22:40;;;;;;;3.13;1.00;;;21.50;99.90;;;;;;5053636;28;20192;-79
2022/10/01 05:25:14;;;;;;;2.72;0.70;;;21.30;99.90;;;;;;5057884;28;20224;-80
2022/10/01 05:27:45;;;;;;;3.35;1.00;;;21.10;99.90;;;;;;5043704;28;20304;-78
2022/10/01 05:30:22;;;;;;;1.85;0.80;;;20.90;99.90;;;;;;5057813;28;20203;-77
2022/10/01 05:33:07;;;;;;;3.92;0.88;;;20.80;99.90;;;;;;5048325;28;20201;-79
2022/10/01 05:35:46;;;;;;;1.52;0.68;;;20.80;99.90;;;;;;5039396;28;20259;-78
2022/10/01 05:38:31;;;;;;;2.75;0.50;;;21.00;99.90;;;;;;5041332;28;20221;-78
2022/10/01 05:41:09;;;;;;;2.55;0.85;;;21.30;99.90;;;;;;5040022;28;20283;-79
2022/10/01 05:43:48;;;;;;;2.42;0.77;;;21.30;99.90;;;;;;5041739;28;20228;-78
2022/10/01 05:46:19;;;;;;;2.70;0.60;;;21.00;99.90;;;;;;5055223;28;20291;-80
2022/10/01 05:48:52;;;;;;;2.15;0.60;;;21.20;99.90;;;;;;5043800;28;20201;-80
2022/10/01 05:51:34;;;;;;;2.72;0.60;;;21.70;99.90;;;;;;5050926;28;20204;-79
2022/10/01 05:54:09;;;;;;;3.92;0.80;;;22.20;99.90;;;;;;5038438;28;20259;-79
2022/10/01 05:56:41;;;;;;;2.97;0.80;;;22.60;99.90;;;;;;5046969;28;20224;-80
2022/10/01 05:59:11;;;;;;;2.65;0.68;;;23.00;99.90;;;;;;5037101;28;20208;-80
2022/10/01 06:01:42;;;;;;;1.83;0.60;;;23.40;99.90;;;;;;5038037;28;20216;-80
2022/10/01 06:04:13;;;;;;;2.03;0.80;;;23.30;99.90;;;;;;5038850;28;20251;-80
2022/10/01 06:06:46;;;;;;;3.63;0.80;;;23.60;99.90;;;;;;5046542;28;20212;-80
2022/10/01 06:09:16;;;;;;;3.80;0.82;;;23.30;99.90;;;;;;5032891;28;20193;-79
2022/10/01 06:11:48;;;;;;;1.42;0.80;;;23.40;99.80;;;;;;5032283;28;20312;-80
2022/10/01 06:14:19;;;;;;;5.20;1.52;;;23.20;99.90;;;;;;5045676;28;20628;-80
2022/10/01 06:16:49;;;;;;;3.75;1.05;;;23.40;99.90;;;;;;5049924;28;20230;-80
2022/10/01 06:19:20;;;;;;;2.92;0.95;;;23.70;99.90;;;;;;5039780;28;20585;-80
2022/10/01 06:21:54;;;;;;;2.63;0.93;;;23.90;99.90;;;;;;5040620;28;20228;-80
2022/10/01 06:24:25;;;;;;;2.55;0.88;;;23.30;99.90;;;;;;5048022;28;20295;-80
2022/10/01 06:26:56;;;;;;;4.03;1.42;;;22.60;99.90;;;;;;5045801;28;20193;-79
2022/10/01 06:29:26;;;;;;;3.15;0.80;;;22.00;99.90;;;;;;5034513;28;20201;-79
2022/10/01 06:32:00;;;;;;;2.90;1.00;;;21.40;99.90;;;;;;5041009;28;20302;-79
2022/10/01 06:34:31;;;;;;;3.42;1.00;;;20.80;99.90;;;;;;5039682;28;20200;-80
2022/10/01 06:37:03;;;;;;;3.45;1.00;;;20.20;99.90;;;;;;5050848;28;21840;-80
2022/10/01 06:39:34;;;;;;;4.35;1.83;;;19.90;99.90;;;;;;5038031;28;20295;-80
2022/10/01 06:42:05;;;;;;;3.90;1.80;;;19.70;99.90;;;;;;5034468;28;20200;-80
2022/10/01 06:44:36;;;;;;;2.70;1.80;;;20.30;99.90;;;;;;5034905;28;20656;-79
2022/10/01 06:47:06;;;;;;;3.58;1.17;;;20.80;99.90;;;;;;5039754;28;20201;-79
2022/10/01 06:49:37;;;;;;;3.92;1.10;;;20.80;99.90;;;;;;5052657;28;20676;-80
2022/10/01 06:54:58;;;;;;;2.20;0.70;;;21.30;99.90;;;;;;5046700;28;20624;-80
2022/10/01 06:57:29;;;;;;;2.78;0.70;;;21.50;99.90;;;;;;5042373;28;20259;-81
2022/10/01 07:00:00;;;;;;;1.65;0.80;;;21.30;99.90;;;;;;5051433;28;20197;-80
2022/10/01 07:02:31;;;;;;;3.03;0.82;;;20.80;99.90;;;;;;5040287;28;20200;-80
2022/10/01 07:05:02;;;;;;;4.15;0.75;;;20.40;99.90;;;;;;5048850;28;20263;-80
2022/10/01 07:07:36;;;;;;;1.73;0.80;;;19.90;99.90;;;;;;5028491;28;20275;-80
2022/10/01 07:10:10;;;;;;;3.88;0.98;;;19.60;99.90;;;;;;5027357;28;20229;-80
2022/10/01 07:12:41;;;;;;;3.05;0.70;;;19.20;99.90;;;;;;5034000;28;20201;-80
2022/10/01 07:15:13;;;;;;;2.90;1.00;;;19.00;99.90;;;;;;5027807;28;20209;-80
2022/10/01 07:17:47;;;;;;;2.70;0.82;;;18.80;99.90;;;;;;5035110;28;20309;-81
2022/10/01 07:20:19;;;;;;;3.63;1.05;;;18.50;99.90;;;;;;5027104;28;20201;-81
2022/10/01 07:22:57;;;;;;;2.80;0.63;;;18.30;99.90;;;;;;5026866;28;20212;-80
2022/10/01 07:25:29;;;;;;;3.83;0.90;;;18.20;99.90;;;;;;5027655;28;20201;-81
2022/10/01 07:28:01;;;;;;;2.25;1.10;;;18.10;99.90;;;;;;5027679;28;20207;-81
2022/10/01 07:30:32;;;;;;;4.72;1.70;;;18.00;99.90;;;;;;5026601;28;20203;-81
2022/10/01 07:33:03;;;;;;;4.05;1.10;;;17.90;99.90;;;;;;5026817;28;20198;-80
2022/10/01 07:35:34;;;;;;;5.45;1.00;;;17.80;99.90;;;;;;5027199;28;20201;-80
2022/10/01 07:38:07;;;;;;;3.45;1.02;;;17.70;99.90;;;;;;5028345;28;20252;-80
2022/10/01 07:40:38;;;;;;;2.92;1.10;;;17.50;99.90;;;;;;5026056;28;20432;-81
2022/10/01 07:43:09;;;;;;;3.70;1.05;;;17.50;99.90;;;;;;5028476;28;20250;-81
2022/10/01 07:45:40;;;;;;;4.43;1.45;;;17.50;99.90;;;;;;5027483;28;20215;-81
2022/10/01 07:48:11;;;;;;;6.75;1.90;;;17.50;99.90;;;;;;5025456;28;20225;-81
2022/10/01 07:50:43;;;;;;;7.90;2.30;;;17.40;99.90;;;;;;5027815;28;20287;-80
2022/10/01 07:53:16;;;;;;;10.20;3.35;;;17.30;99.90;;;;;;5027085;28;20201;-80
2022/10/01 07:55:47;;;;;;;4.20;1.50;;;17.20;99.90;;;;;;5027540;28;20258;-80
2022/10/01 07:58:18;;;;;;;4.60;1.52;;;17.20;99.90;;;;;;5055928;28;20210;-80
2022/10/01 08:00:48;;;;;;;4.07;1.42;;;17.10;99.90;;;;;;5027035;28;20221;-80
2022/10/01 08:03:20;;;;;;;5.47;1.58;;;17.10;99.90;;;;;;5026726;28;20193;-79
2022/10/01 08:05:51;;;;;;;3.28;1.20;;;17.10;99.90;;;;;;5026811;28;20197;-80
2022/10/01 08:08:25;;;;;;;9.05;2.22;;;17.10;99.90;;;;;;5026846;28;20678;-80
2022/10/01 08:10:55;;;;;;;5.85;2.42;;;17.10;99.90;;;;;;5027896;28;20194;-80
2022/10/01 08:13:26;;;;;;;8.40;2.55;;;17.10;99.90;;;;;;5025999;28;20284;-79
2022/10/01 08:15:57;;;;;;;4.35;1.80;;;17.00;99.90;;;;;;5025081;28;20223;-80
2022/10/01 08:18:28;;;;;;;2.67;1.17;;;17.00;99.90;;;;;;5027105;28;20221;-80
2022/10/01 08:21:00;;;;;;;4.30;1.60;;;17.00;99.90;;;;;;5026611;28;20535;-81
2022/10/01 08:23:35;;;;;;;4.55;1.10;;;16.90;99.90;;;;;;5026048;28;20274;-80
2022/10/01 08:26:10;;;;;;;3.50;1.00;;;16.90;99.90;;;;;;5026231;28;20566;-79
2022/10/01 08:28:41;;;;;;;3.88;1.05;;;16.90;99.90;;;;;;5027014;28;20247;-80
2022/10/01 08:31:11;;;;;;;2.70;1.00;;;16.90;99.90;;;;;;5025726;28;20217;-80
2022/10/01 08:33:44;;;;;;;2.78;1.10;;;16.90;99.90;;;;;;5026070;28;20205;-82
2022/10/01 08:36:15;;;;;;;6.97;1.52;;;16.90;99.90;;;;;;5026374;28;22598;-80
2022/10/01 08:38:50;;;;;;;3.40;1.35;;;16.80;99.90;;;;;;5026577;28;20208;-80
2022/10/01 08:41:33;;;;;;;2.58;1.35;;;16.80;99.90;;;;;;5025536;28;20667;-80
2022/10/01 08:44:07;;;;;;;2.95;1.20;;;16.70;99.90;;;;;;5025296;28;20205;-79
2022/10/01 08:46:40;;;;;;;3.22;1.23;;;16.70;99.90;;;;;;5024501;28;20201;-79
2022/10/01 08:49:19;;;;;;;2.58;1.20;;;16.70;99.90;;;;;;5027089;28;20196;-79
2022/10/01 08:51:54;;;;;;;4.93;1.60;;;16.70;99.90;;;;;;5026593;28;20231;-79
2022/10/01 08:54:41;;;;;;;2.72;1.42;;;16.60;99.90;;;;;;5025654;28;20713;-80
2022/10/01 08:57:17;;;;;;;3.53;1.70;;;16.60;99.90;;;;;;5031855;28;20591;-80
2022/10/01 08:59:50;;;;;;;5.13;1.90;;;16.70;99.90;;;;;;5027533;28;20211;-79
2022/10/01 09:02:28;;;;;;;4.50;2.17;;;16.60;99.90;;;;;;5028646;28;20205;-78
2022/10/01 09:05:00;;;;;;;4.43;2.10;;;16.70;99.90;;;;;;5032341;28;20200;-78
2022/10/01 09:07:48;;;;;;;5.47;1.92;;;16.60;99.90;;;;;;5038719;28;20208;-80
2022/10/01 09:10:44;;;;;;;4.40;1.75;;;16.60;99.90;;;;;;5026581;28;20232;-79
2022/10/01 09:13:41;;;;;;;4.10;1.60;;;16.60;99.90;;;;;;5026005;28;20201;-80
2022/10/01 09:16:19;;;;;;;2.33;1.20;;;16.60;99.90;;;;;;5028652;28;20679;-79
2022/10/01 09:19:01;;;;;;;4.80;1.50;;;16.70;99.90;;;;;;5036178;28;20225;-81
2022/10/01 09:21:48;;;;;;;2.47;1.35;;;16.60;99.90;;;;;;5045881;28;20668;-80
2022/10/01 09:24:24;;;;;;;3.35;1.42;;;16.70;99.90;;;;;;5050074;28;20200;-80
2022/10/01 09:26:56;;;;;;;4.57;1.30;;;16.60;99.90;;;;;;5049087;28;20212;-80
2022/10/01 09:29:32;;;;;;;2.85;1.17;;;16.60;99.90;;;;;;5040350;28;20196;-81
2022/10/01 09:32:06;;;;;;;4.53;1.20;;;16.60;99.90;;;;;;5046468;28;20203;-80
2022/10/01 09:34:42;;;;;;;4.07;1.30;;;16.60;99.90;;;;;;5039914;28;20189;-80
2022/10/01 09:37:23;;;;;;;4.25;1.00;;;16.60;99.90;;;;;;5034147;28;20281;-80
2022/10/01 09:40:13;;;;;;;2.42;1.17;;;16.60;99.90;;;;;;5047595;28;20213;-81
2022/10/01 09:42:46;;;;;;;4.68;1.80;;;16.60;99.90;;;;;;5049227;28;20279;-80
2022/10/01 09:45:26;;;;;;;5.07;1.50;;;16.50;99.90;;;;;;5046147;28;20193;-80
2022/10/01 09:48:04;;;;;;;2.28;1.40;;;16.50;99.90;;;;;;5045169;28;20208;-80
2022/10/01 09:50:42;;;;;;;6.70;2.80;;;16.50;99.90;;;;;;5040085;28;20651;-80
2022/10/01 09:53:19;;;;;;;7.53;2.85;;;16.50;99.90;;;;;;5032746;28;20556;-81
2022/10/01 09:56:00;;;;;;;4.38;2.33;;;16.50;99.90;;;;;;5042552;28;20243;-81
2022/10/01 09:58:43;;;;;;;5.32;2.17;;;16.50;99.90;;;;;;5036923;28;20221;-80
2022/10/01 10:01:41;;;;;;;4.43;1.90;;;16.50;99.90;;;;;;5039223;28;20579;-81
2022/10/01 10:04:12;;;;;;;4.15;2.10;;;16.40;99.90;;;;;;5046429;28;20204;-81
2022/10/01 10:06:43;;;;;;;6.72;2.42;;;16.40;99.90;;;;;;5049842;28;20189;-81
2022/10/01 10:09:20;;;;;;;4.85;2.50;;;16.40;99.90;;;;;;5047769;28;20690;-80
2022/10/01 10:11:55;;;;;;;3.88;2.33;;;16.40;99.90;;;;;;5033227;28;20276;-80
2022/10/01 10:14:32;;;;;;;3.97;2.30;;;16.40;99.90;;;;;;5051517;28;20216;-80
2022/10/01 10:17:08;;;;;;;6.70;2.97;;;16.40;99.90;;;;;;5037781;28;20193;-81
2022/10/01 10:19:42;;;;;;;5.90;3.10;;;16.40;99.90;;;;;;5044926;28;20197;-79
2022/10/01 10:22:29;;;;;;;6.45;3.15;;;16.40;99.90;;;;;;5040094;28;20273;-79
2022/10/01 10:25:16;;;;;;;4.97;2.78;;;16.40;99.90;;;;;;5050401;28;20192;-80
2022/10/01 10:27:55;;;;;;;7.75;3.33;;;16.40;99.90;;;;;;5033271;28;20247;-81
2022/10/01 10:30:28;;;;;;;5.00;2.83;;;16.40;99.90;;;;;;5032477;28;20673;-80
2022/10/01 10:33:07;;;;;;;5.03;2.75;;;16.40;99.90;;;;;;5048713;28;20204;-80
2022/10/01 10:35:42;;;;;;;6.88;3.35;;;16.40;99.90;;;;;;5050513;28;20749;-80
2022/10/01 10:38:20;;;;;;;5.88;3.10;;;16.30;99.90;;;;;;5029268;28;20228;-80
2022/10/01 10:40:51;;;;;;;7.15;3.25;;;16.40;99.90;;;;;;5040549;28;20536;-79
2022/10/01 10:43:24;;;;;;;8.98;3.95;;;16.40;99.90;;;;;;5042556;28;20205;-79
2022/10/01 10:46:00;;;;;;;8.38;3.58;;;16.40;99.90;;;;;;5041623;28;20208;-79
2022/10/01 10:48:42;;;;;;;6.72;3.53;;;16.30;99.90;;;;;;5038401;28;20596;-80
2022/10/01 10:51:13;;;;;;;6.38;2.92;;;16.30;99.90;;;;;;5039112;28;20596;-80
2022/10/01 10:53:45;;;;;;;5.63;2.30;;;16.30;99.90;;;;;;5048752;28;20276;-80
2022/10/01 10:56:25;;;;;;;4.10;2.20;;;16.30;99.90;;;;;;5045126;28;20220;-81
2022/10/01 10:59:07;;;;;;;4.75;1.98;;;16.30;99.90;;;;;;5041465;28;20266;-80
2022/10/01 11:01:49;;;;;;;5.07;2.15;;;16.30;99.90;;;;;;5033845;28;20258;-80
2022/10/01 11:04:33;;;;;;;3.92;2.00;;;16.30;99.90;;;;;;5042898;28;20279;-80
2022/10/01 11:07:04;;;;;;;4.25;1.70;;;16.30;99.90;;;;;;5046528;28;20212;-80
2022/10/01 11:09:59;;;;;;;2.88;1.45;;;16.30;99.90;;;;;;5038143;28;20213;-79
2022/10/01 11:12:42;;;;;;;3.97;1.85;;;16.30;99.90;;;;;;5048214;28;20188;-79
2022/10/01 11:15:29;;;;;;;3.33;1.70;;;16.30;99.90;;;;;;5039081;28;20239;-80
2022/10/01 11:18:30;;;;;;;4.45;2.10;;;16.10;99.90;;;;;;5043448;28;20224;-80
2022/10/01 11:21:25;;;;;;;6.13;2.35;;;16.10;99.90;;;;;;5030045;28;20201;-79
2022/10/01 11:24:24;;;;;;;4.57;1.80;;;16.10;99.90;;;;;;5045562;28;20204;-80
2022/10/01 11:27:00;;;;;;;5.18;2.35;;;16.10;99.90;;;;;;5044322;28;20271;-81
2022/10/01 11:29:46;;;;;;;5.53;2.50;;;16.00;99.90;;;;;;5051251;28;20196;-81
2022/10/01 11:32:28;;;;;;;5.72;2.83;;;16.00;99.90;;;;;;5039367;28;20276;-81
2022/10/01 11:35:33;;;;;;;6.70;2.47;;;15.90;99.90;;;;;;5037180;28;20201;-80
2022/10/01 11:38:30;;;;;;;4.38;2.08;;;15.80;99.90;;;;;;5051012;28;20224;-80
2022/10/01 11:41:17;;;;;;;5.57;2.20;;;15.70;99.90;;;;;;5043054;28;20913;-79
2022/10/01 11:43:53;;;;;;;5.35;2.20;;;15.70;99.90;;;;;;5046152;28;20604;-80
2022/10/01 11:46:39;;;;;;;8.40;2.85;;;15.70;99.90;;;;;;5049477;28;20207;-80
2022/10/01 11:49:41;;;;;;;6.35;3.00;;;15.70;99.90;;;;;;5046178;28;20269;-80
2022/10/01 11:52:39;;;;;;;10.05;4.85;;;15.70;99.90;;;;;;5048262;28;20227;-80
2022/10/01 12:01:08;;;;;;;7.35;2.42;;;15.70;99.90;;;;;;5052324;28;20585;-80
2022/10/01 12:03:51;;;;;;;4.63;1.83;;;15.70;99.90;;;;;;5052225;28;20229;-80
2022/10/01 12:06:25;;;;;;;5.10;2.17;;;15.60;99.90;;;;;;5052452;28;20287;-80
2022/10/01 12:09:01;;;;;;;7.05;2.35;;;15.60;99.90;;;;;;5047059;28;20204;-80
2022/10/01 12:11:38;;;;;;;6.78;2.10;;;15.60;99.90;;;;;;5047563;28;20203;-80
2022/10/01 12:14:15;;;;;;;4.90;1.73;;;15.50;99.90;;;;;;5043255;28;20212;-81
2022/10/01 12:16:51;;;;;;;6.60;2.28;;;15.40;99.90;;;;;;5036926;28;20209;-79
2022/10/01 12:19:26;;;;;;;3.58;1.63;;;15.30;99.90;;;;;;5031974;28;20225;-79
2022/10/01 12:22:01;;;;;;;5.47;1.90;;;15.20;99.90;;;;;;5044018;28;20212;-79
2022/10/01 12:24:37;;;;;;;4.68;1.65;;;15.20;99.90;;;;;;5051963;28;20202;-77
2022/10/01 12:27:29;;;;;;;5.22;1.80;;;15.20;99.90;;;;;;5045204;28;20258;-78
2022/10/01 12:30:05;;;;;;;5.55;1.70;;;15.10;99.90;;;;;;5040501;28;20225;-77
2022/10/01 12:32:48;;;;;;;4.60;1.60;;;15.20;99.90;;;;;;5049280;28;20283;-78
2022/10/01 12:35:34;;;;;;;5.03;1.60;;;15.20;99.90;;;;;;5032232;28;20201;-79
2022/10/01 12:38:21;;;;;;;5.47;1.60;;;15.20;99.90;;;;;;5031889;28;20307;-78
2022/10/01 12:41:02;;;;;;;3.20;1.42;;;15.20;99.90;;;;;;5032482;28;20202;-78
2022/10/01 12:44:03;;;;;;;3.30;1.40;;;15.20;99.90;;;;;;5032675;28;20580;-84
2022/10/01 12:46:40;;;;;;;2.90;1.20;;;15.30;99.90;;;;;;5020743;28;20280;-81
2022/10/01 12:49:21;;;;;;;6.00;1.60;;;15.20;99.90;;;;;;5043618;28;20232;-79
2022/10/01 12:51:56;;;;;;;5.90;1.50;;;15.20;99.90;;;;;;5051656;28;20200;-80
2022/10/01 12:54:40;;;;;;;3.85;1.40;;;15.30;99.90;;;;;;5051110;28;20256;-78
2022/10/01 12:57:23;;;;;;;4.95;1.50;;;15.20;99.90;;;;;;5052006;28;20273;-78
2022/10/01 13:00:06;;;;;;;6.13;1.52;;;15.30;99.90;;;;;;5040539;28;20228;-78
2022/10/01 13:03:01;;;;;;;3.72;1.58;;;15.30;99.90;;;;;;5031013;28;20197;-78
2022/10/01 13:05:39;;;;;;;4.63;1.20;;;15.30;99.90;;;;;;5037761;28;20193;-78
2022/10/01 13:08:42;;;;;;;4.75;1.30;;;15.30;99.90;;;;;;5051466;28;20208;-79
2022/10/01 13:11:29;;;;;;;3.75;1.30;;;15.30;99.90;;;;;;5051463;28;20218;-80
2022/10/01 13:14:17;;;;;;;2.80;1.30;;;15.30;99.90;;;;;;5056262;28;20211;-80
2022/10/01 13:17:11;;;;;;;4.80;1.60;;;15.30;99.90;;;;;;5057903;28;20201;-80
2022/10/01 13:22:52;;;;;;;3.20;1.30;;;15.20;99.90;;;;;;5046793;28;20691;-81
2022/10/01 13:25:41;;;;;;;5.22;1.67;;;15.20;99.90;;;;;;5046722;28;20186;-79
2022/10/01 13:28:22;;;;;;;3.20;1.30;;;15.10;99.90;;;;;;5051901;28;20210;-80
2022/10/01 13:31:11;;;;;;;2.60;1.25;;;15.10;99.90;;;;;;5042994;28;20185;-80
2022/10/01 13:33:42;;;;;;;4.53;1.50;;;15.10;99.90;;;;;;5047690;28;20197;-79
2022/10/01 13:36:23;;;;;;;4.38;1.20;;;15.10;99.90;;;;;;5049204;28;20245;-79
2022/10/01 13:39:05;;;;;;;3.53;1.30;;;15.10;99.90;;;;;;5062443;28;20276;-77
2022/10/01 13:44:31;;;;;;;3.78;1.38;;;15.10;99.90;;;;;;5072611;28;20204;-77
2022/10/01 13:50:26;;;;;;;2.97;1.15;;;15.00;99.90;;;;;;5064703;28;20215;-79